createdAt,value
2019-06-26T00:00:43.169Z,1014.18
2019-06-26T00:01:43.145Z,1014.20
2019-06-26T00:02:43.123Z,1014.23
2019-06-26T00:03:43.117Z,1014.20
2019-06-26T00:04:43.103Z,1014.25
2019-06-26T00:05:43.101Z,1014.29
2019-06-26T00:06:43.094Z,1014.25
2019-06-26T00:07:43.073Z,1014.19
2019-06-26T00:08:43.058Z,1014.29
2019-06-26T00:09:43.047Z,1014.24
2019-06-26T00:10:43.067Z,1014.28
2019-06-26T00:11:43.034Z,1014.26
2019-06-26T00:12:43.035Z,1014.24
2019-06-26T00:13:43.033Z,1014.24
2019-06-26T00:14:42.995Z,1014.21
2019-06-26T00:15:42.986Z,1014.22
2019-06-26T00:16:42.973Z,1014.25
2019-06-26T00:17:42.967Z,1014.28
2019-06-26T00:18:42.947Z,1014.24
2019-06-26T00:19:42.952Z,1014.22
2019-06-26T00:20:42.936Z,1014.27
2019-06-26T00:21:42.914Z,1014.28
2019-06-26T00:22:42.905Z,1014.28
2019-06-26T00:23:42.929Z,1014.28
2019-06-26T00:24:42.878Z,1014.21
2019-06-26T00:25:42.867Z,1014.22
2019-06-26T00:26:42.857Z,1014.22
2019-06-26T00:27:42.848Z,1014.22
2019-06-26T00:28:42.839Z,1014.24
2019-06-26T00:29:42.840Z,1014.22
2019-06-26T00:30:42.820Z,1014.18
2019-06-26T00:31:42.809Z,1014.24
2019-06-26T00:32:42.809Z,1014.21
2019-06-26T00:33:42.784Z,1014.21
2019-06-26T00:34:42.779Z,1014.22
2019-06-26T00:35:42.764Z,1014.23
2019-06-26T00:36:42.749Z,1014.19
2019-06-26T00:37:42.789Z,1014.19
2019-06-26T00:38:42.727Z,1014.20
2019-06-26T00:39:42.728Z,1014.17
2019-06-26T00:40:42.700Z,1014.19
2019-06-26T00:41:42.689Z,1014.16
2019-06-26T00:42:42.677Z,1014.20
2019-06-26T00:43:43.015Z,1014.25
2019-06-26T00:44:42.674Z,1014.21
2019-06-26T00:45:42.651Z,1014.22
2019-06-26T00:46:42.652Z,1014.19
2019-06-26T00:47:42.626Z,1014.20
2019-06-26T00:48:42.611Z,1014.18
2019-06-26T00:49:42.630Z,1014.21
2019-06-26T00:50:42.602Z,1014.16
2019-06-26T00:51:42.587Z,1014.15
2019-06-26T00:52:42.575Z,1014.16
2019-06-26T00:53:42.556Z,1014.18
2019-06-26T00:54:42.559Z,1014.17
2019-06-26T00:55:42.559Z,1014.15
2019-06-26T00:56:42.522Z,1014.19
2019-06-26T00:57:42.516Z,1014.17
2019-06-26T00:58:42.504Z,1014.19
2019-06-26T00:59:42.499Z,1014.18
2019-06-26T01:00:42.485Z,1014.12
2019-06-26T01:01:42.490Z,1014.16
2019-06-26T01:02:42.467Z,1014.14
2019-06-26T01:03:42.444Z,1014.13
2019-06-26T01:04:42.439Z,1014.12
2019-06-26T01:05:42.426Z,1014.12
2019-06-26T01:06:42.482Z,1014.12
2019-06-26T01:07:42.402Z,1014.10
2019-06-26T01:08:42.393Z,1014.06
2019-06-26T01:09:42.386Z,1014.12
2019-06-26T01:10:42.369Z,1014.05
2019-06-26T01:11:42.365Z,1014.12
2019-06-26T01:12:42.376Z,1014.10
2019-06-26T01:13:57.117Z,1014.09
2019-06-26T01:14:43.322Z,1014.13
2019-06-26T01:15:42.312Z,1014.11
2019-06-26T01:16:42.299Z,1014.08
2019-06-26T01:17:42.302Z,1014.05
2019-06-26T01:18:42.283Z,1014.11
2019-06-26T01:19:42.267Z,1014.09
2019-06-26T01:20:42.257Z,1014.12
2019-06-26T01:21:42.243Z,1014.03
2019-06-26T01:22:42.259Z,1014.09
2019-06-26T01:23:42.223Z,1014.05
2019-06-26T01:24:42.220Z,1014.09
2019-06-26T01:25:42.212Z,1014.04
2019-06-26T01:26:42.193Z,1013.99
2019-06-26T01:27:42.184Z,1014.03
2019-06-26T01:28:42.180Z,1014.01
2019-06-26T01:29:42.160Z,1014.02
2019-06-26T01:30:42.145Z,1014.02
2019-06-26T01:31:42.132Z,1014.04
2019-06-26T01:32:42.131Z,1013.97
2019-06-26T01:33:42.111Z,1014.04
2019-06-26T01:34:42.104Z,1013.94
2019-06-26T01:35:42.123Z,1013.98
2019-06-26T01:36:42.085Z,1013.94
2019-06-26T01:37:42.067Z,1013.96
2019-06-26T01:38:42.056Z,1013.93
2019-06-26T01:39:42.043Z,1014.00
2019-06-26T01:40:42.038Z,1013.98
2019-06-26T01:41:42.023Z,1013.91
2019-06-26T01:42:42.018Z,1013.97
2019-06-26T01:43:42.003Z,1014.00
2019-06-26T01:44:41.997Z,1013.95
2019-06-26T01:45:41.979Z,1013.92
2019-06-26T01:46:41.967Z,1014.01
2019-06-26T01:47:41.965Z,1013.99
2019-06-26T01:48:41.955Z,1014.06
2019-06-26T01:49:41.941Z,1014.06
2019-06-26T01:50:41.925Z,1014.04
2019-06-26T01:51:41.909Z,1014.00
2019-06-26T01:52:41.899Z,1013.97
2019-06-26T01:53:41.916Z,1013.97
2019-06-26T01:54:41.881Z,1013.92
2019-06-26T01:55:41.869Z,1013.91
2019-06-26T01:56:41.852Z,1014.00
2019-06-26T01:57:41.849Z,1013.91
2019-06-26T01:58:41.856Z,1013.94
2019-06-26T01:59:41.858Z,1013.93
2019-06-26T02:00:41.813Z,1013.93
2019-06-26T02:01:41.797Z,1013.97
2019-06-26T02:02:41.788Z,1013.98
2019-06-26T02:03:41.779Z,1013.96
2019-06-26T02:04:41.765Z,1013.94
2019-06-26T02:05:41.792Z,1013.91
2019-06-26T02:06:41.744Z,1013.96
2019-06-26T02:07:41.759Z,1013.95
2019-06-26T02:08:41.726Z,1013.95
2019-06-26T02:09:41.709Z,1013.89
2019-06-26T02:10:41.695Z,1013.92
2019-06-26T02:11:41.705Z,1013.99
2019-06-26T02:12:41.722Z,1014.00
2019-06-26T02:13:41.667Z,1013.88
2019-06-26T02:14:41.657Z,1013.92
2019-06-26T02:15:41.647Z,1013.99
2019-06-26T02:16:41.640Z,1014.00
2019-06-26T02:17:41.633Z,1013.96
2019-06-26T02:18:41.610Z,1013.94
2019-06-26T02:19:41.594Z,1013.97
2019-06-26T02:20:41.605Z,1013.91
2019-06-26T02:21:41.575Z,1013.95
2019-06-26T02:22:41.565Z,1013.95
2019-06-26T02:23:41.554Z,1013.96
2019-06-26T02:24:41.562Z,1013.89
2019-06-26T02:25:41.526Z,1013.88
2019-06-26T02:26:41.533Z,1013.90
2019-06-26T02:27:41.512Z,1013.88
2019-06-26T02:28:41.498Z,1013.90
2019-06-26T02:29:41.486Z,1013.89
2019-06-26T02:30:41.476Z,1013.87
2019-06-26T02:31:41.467Z,1013.88
2019-06-26T02:32:41.488Z,1013.87
2019-06-26T02:33:41.446Z,1013.88
2019-06-26T02:34:41.439Z,1013.80
2019-06-26T02:35:41.419Z,1013.80
2019-06-26T02:36:41.408Z,1013.78
2019-06-26T02:37:41.404Z,1013.84
2019-06-26T02:38:41.401Z,1013.76
2019-06-26T02:39:41.368Z,1013.78
2019-06-26T02:40:41.367Z,1013.74
2019-06-26T02:41:41.355Z,1013.76
2019-06-26T02:42:41.347Z,1013.71
2019-06-26T02:43:41.361Z,1013.75
2019-06-26T02:44:52.902Z,1013.76
2019-06-26T02:45:42.302Z,1013.74
2019-06-26T02:46:41.299Z,1013.70
2019-06-26T02:47:41.302Z,1013.70
2019-06-26T02:48:41.274Z,1013.75
2019-06-26T02:49:41.282Z,1013.68
2019-06-26T02:50:41.247Z,1013.72
2019-06-26T02:51:41.240Z,1013.68
2019-06-26T02:52:41.227Z,1013.66
2019-06-26T02:53:41.211Z,1013.68
2019-06-26T02:54:41.242Z,1013.63
2019-06-26T02:55:41.202Z,1013.60
2019-06-26T02:56:41.198Z,1013.64
2019-06-26T02:57:41.196Z,1013.66
2019-06-26T02:58:41.163Z,1013.62
2019-06-26T02:59:41.159Z,1013.56
2019-06-26T03:00:41.149Z,1013.61
2019-06-26T03:01:41.128Z,1013.57
2019-06-26T03:02:41.142Z,1013.64
2019-06-26T03:03:41.102Z,1013.63
2019-06-26T03:04:41.087Z,1013.62
2019-06-26T03:05:41.092Z,1013.59
2019-06-26T03:06:41.066Z,1013.58
2019-06-26T03:07:41.056Z,1013.60
2019-06-26T03:08:41.047Z,1013.58
2019-06-26T03:09:41.036Z,1013.57
2019-06-26T03:10:41.029Z,1013.58
2019-06-26T03:11:41.014Z,1013.60
2019-06-26T03:12:40.999Z,1013.57
2019-06-26T03:13:41.008Z,1013.54
2019-06-26T03:14:40.985Z,1013.53
2019-06-26T03:15:41.011Z,1013.56
2019-06-26T03:16:40.958Z,1013.51
2019-06-26T03:17:54.182Z,1013.52
2019-06-26T03:18:41.931Z,1013.45
2019-06-26T03:19:40.925Z,1013.48
2019-06-26T03:20:40.907Z,1013.52
2019-06-26T03:21:40.902Z,1013.49
2019-06-26T03:22:40.884Z,1013.53
2019-06-26T03:23:40.908Z,1013.54
2019-06-26T03:24:40.865Z,1013.53
2019-06-26T03:25:40.857Z,1013.47
2019-06-26T03:26:40.862Z,1013.53
2019-06-26T03:27:40.839Z,1013.51
2019-06-26T03:28:40.818Z,1013.50
2019-06-26T03:29:40.806Z,1013.47
2019-06-26T03:30:40.812Z,1013.55
2019-06-26T03:31:40.815Z,1013.55
2019-06-26T03:32:40.787Z,1013.51
2019-06-26T03:33:40.768Z,1013.53
2019-06-26T03:34:40.758Z,1013.54
2019-06-26T03:35:41.032Z,1013.51
2019-06-26T03:36:40.763Z,1013.53
2019-06-26T03:37:40.726Z,1013.54
2019-06-26T03:38:40.707Z,1013.55
2019-06-26T03:39:40.702Z,1013.59
2019-06-26T03:40:40.683Z,1013.60
2019-06-26T03:41:40.676Z,1013.59
2019-06-26T03:42:40.675Z,1013.58
2019-06-26T03:43:40.650Z,1013.59
2019-06-26T03:44:40.644Z,1013.54
2019-06-26T03:45:40.642Z,1013.62
2019-06-26T03:46:40.625Z,1013.62
2019-06-26T03:47:40.674Z,1013.63
2019-06-26T03:48:40.594Z,1013.66
2019-06-26T03:49:40.588Z,1013.67
2019-06-26T03:50:40.585Z,1013.66
2019-06-26T03:51:40.627Z,1013.66
2019-06-26T03:52:40.555Z,1013.70
2019-06-26T03:53:40.567Z,1013.68
2019-06-26T03:54:40.527Z,1013.67
2019-06-26T03:55:40.521Z,1013.66
2019-06-26T03:56:40.502Z,1013.69
2019-06-26T03:57:40.548Z,1013.63
2019-06-26T03:58:40.546Z,1013.65
2019-06-26T03:59:40.469Z,1013.70
2019-06-26T04:00:40.461Z,1013.67
2019-06-26T04:01:40.445Z,1013.71
2019-06-26T04:02:40.453Z,1013.72
2019-06-26T04:03:40.424Z,1013.63
2019-06-26T04:04:40.430Z,1013.70
2019-06-26T04:05:40.404Z,1013.77
2019-06-26T04:06:40.402Z,1013.82
2019-06-26T04:07:40.380Z,1013.78
2019-06-26T04:08:40.367Z,1013.80
2019-06-26T04:09:40.374Z,1013.82
2019-06-26T04:10:43.250Z,1013.82
2019-06-26T04:11:40.336Z,1013.86
2019-06-26T04:12:40.325Z,1013.89
2019-06-26T04:13:40.323Z,1013.86
2019-06-26T04:14:40.314Z,1013.83
2019-06-26T04:15:42.378Z,1013.84
2019-06-26T04:16:40.288Z,1013.85
2019-06-26T04:17:40.274Z,1013.82
2019-06-26T04:18:40.261Z,1013.86
2019-06-26T04:19:40.299Z,1013.84
2019-06-26T04:20:40.242Z,1013.87
2019-06-26T04:21:40.239Z,1013.88
2019-06-26T04:22:40.216Z,1013.88
2019-06-26T04:23:40.205Z,1013.92
2019-06-26T04:24:40.209Z,1013.88
2019-06-26T04:25:40.202Z,1013.92
2019-06-26T04:26:40.170Z,1013.93
2019-06-26T04:27:40.166Z,1013.89
2019-06-26T04:28:40.153Z,1013.88
2019-06-26T04:29:40.133Z,1013.92
2019-06-26T04:30:40.155Z,1013.92
2019-06-26T04:31:40.112Z,1013.89
2019-06-26T04:32:40.102Z,1013.94
2019-06-26T04:33:40.093Z,1014.00
2019-06-26T04:34:40.079Z,1013.93
2019-06-26T04:35:40.082Z,1013.98
2019-06-26T04:36:40.060Z,1013.99
2019-06-26T04:37:40.073Z,1013.92
2019-06-26T04:38:40.062Z,1013.99
2019-06-26T04:39:40.030Z,1013.96
2019-06-26T04:40:40.025Z,1013.89
2019-06-26T04:41:40.022Z,1013.90
2019-06-26T04:42:39.993Z,1013.86
2019-06-26T04:43:39.982Z,1013.82
2019-06-26T04:44:39.972Z,1013.89
2019-06-26T04:45:39.958Z,1013.86
2019-06-26T04:46:39.953Z,1013.88
2019-06-26T04:47:39.945Z,1013.88
2019-06-26T04:48:39.927Z,1013.97
2019-06-26T04:49:39.911Z,1013.90
2019-06-26T04:50:39.909Z,1013.92
2019-06-26T04:51:39.889Z,1013.91
2019-06-26T04:52:39.922Z,1013.88
2019-06-26T04:53:39.878Z,1013.84
2019-06-26T04:54:39.861Z,1013.96
2019-06-26T04:55:39.852Z,1013.89
2019-06-26T04:56:39.836Z,1013.96
2019-06-26T04:57:39.827Z,1013.94
2019-06-26T04:58:39.834Z,1013.92
2019-06-26T04:59:39.805Z,1013.97
2019-06-26T05:00:39.795Z,1013.88
2019-06-26T05:01:39.791Z,1013.94
2019-06-26T05:02:39.777Z,1013.89
2019-06-26T05:03:39.784Z,1013.85
2019-06-26T05:04:39.751Z,1013.84
2019-06-26T05:05:40.301Z,1013.87
2019-06-26T05:06:39.726Z,1013.84
2019-06-26T05:07:39.718Z,1013.91
2019-06-26T05:08:39.736Z,1013.91
2019-06-26T05:09:39.697Z,1013.84
2019-06-26T05:10:39.726Z,1013.81
2019-06-26T05:11:39.672Z,1013.90
2019-06-26T05:12:39.665Z,1013.90
2019-06-26T05:13:39.645Z,1013.88
2019-06-26T05:14:39.681Z,1013.85
2019-06-26T05:15:39.626Z,1013.88
2019-06-26T05:16:39.623Z,1013.91
2019-06-26T05:17:39.602Z,1013.92
2019-06-26T05:18:39.588Z,1013.97
2019-06-26T05:19:39.594Z,1013.88
2019-06-26T05:20:39.569Z,1013.95
2019-06-26T05:21:39.553Z,1013.88
2019-06-26T05:22:39.572Z,1013.87
2019-06-26T05:23:39.550Z,1013.88
2019-06-26T05:24:39.524Z,1013.85
2019-06-26T05:25:39.517Z,1013.85
2019-06-26T05:26:39.524Z,1013.87
2019-06-26T05:27:39.490Z,1013.90
2019-06-26T05:28:39.480Z,1013.83
2019-06-26T05:29:39.474Z,1013.84
2019-06-26T05:30:39.609Z,1013.84
2019-06-26T05:31:39.455Z,1013.81
2019-06-26T05:32:39.438Z,1013.85
2019-06-26T05:33:39.436Z,1013.84
2019-06-26T05:34:39.412Z,1013.80
2019-06-26T05:35:39.439Z,1013.75
2019-06-26T05:36:39.419Z,1013.81
2019-06-26T05:37:39.380Z,1013.73
2019-06-26T05:38:39.373Z,1013.77
2019-06-26T05:39:39.366Z,1013.77
2019-06-26T05:40:39.350Z,1013.76
2019-06-26T05:41:39.370Z,1013.82
2019-06-26T05:42:39.337Z,1013.80
2019-06-26T05:43:39.354Z,1013.75
2019-06-26T05:44:39.299Z,1013.83
2019-06-26T05:45:39.295Z,1013.76
2019-06-26T05:46:39.303Z,1013.85
2019-06-26T05:47:39.277Z,1013.80
2019-06-26T05:48:39.254Z,1013.85
2019-06-26T05:49:39.243Z,1013.88
2019-06-26T05:50:39.242Z,1013.85
2019-06-26T05:51:39.227Z,1013.85
2019-06-26T05:52:42.441Z,1013.86
2019-06-26T05:53:39.200Z,1013.86
2019-06-26T05:54:39.194Z,1013.80
2019-06-26T05:55:39.177Z,1013.83
2019-06-26T05:56:39.166Z,1013.83
2019-06-26T05:57:41.817Z,1013.80
2019-06-26T05:58:39.219Z,1013.82
2019-06-26T05:59:39.160Z,1013.84
2019-06-26T06:00:39.130Z,1013.83
2019-06-26T06:01:39.145Z,1013.86
2019-06-26T06:02:39.099Z,1013.85
2019-06-26T06:03:39.101Z,1013.85
2019-06-26T06:04:39.087Z,1013.85
2019-06-26T06:05:39.072Z,1013.85
2019-06-26T06:06:42.115Z,1013.88
2019-06-26T06:07:39.044Z,1013.89
2019-06-26T06:08:39.050Z,1013.93
2019-06-26T06:09:39.028Z,1013.83
2019-06-26T06:10:39.061Z,1013.85
2019-06-26T06:11:39.003Z,1013.81
2019-06-26T06:12:39.019Z,1013.80
2019-06-26T06:13:38.982Z,1013.83
2019-06-26T06:14:38.981Z,1013.85
2019-06-26T06:15:38.989Z,1013.85
2019-06-26T06:16:47.508Z,1013.83
2019-06-26T06:17:39.947Z,1013.84
2019-06-26T06:18:38.938Z,1013.87
2019-06-26T06:19:38.923Z,1013.86
2019-06-26T06:20:38.978Z,1013.87
2019-06-26T06:21:38.903Z,1013.86
2019-06-26T06:22:38.916Z,1013.88
2019-06-26T06:23:38.884Z,1013.90
2019-06-26T06:24:38.914Z,1013.94
2019-06-26T06:25:38.895Z,1013.89
2019-06-26T06:26:38.842Z,1013.93
2019-06-26T06:27:38.834Z,1013.92
2019-06-26T06:28:38.832Z,1013.88
2019-06-26T06:29:38.822Z,1013.91
2019-06-26T06:30:38.807Z,1013.88
2019-06-26T06:31:38.794Z,1013.93
2019-06-26T06:32:38.777Z,1013.89
2019-06-26T06:33:38.771Z,1013.90
2019-06-26T06:34:38.758Z,1013.88
2019-06-26T06:35:38.775Z,1013.93
2019-06-26T06:36:38.738Z,1013.91
2019-06-26T06:37:38.725Z,1013.93
2019-06-26T06:38:38.713Z,1013.94
2019-06-26T06:39:38.699Z,1013.92
2019-06-26T06:40:38.727Z,1013.85
2019-06-26T06:41:38.676Z,1013.95
2019-06-26T06:42:38.664Z,1013.93
2019-06-26T06:43:38.656Z,1013.85
2019-06-26T06:44:38.652Z,1013.90
2019-06-26T06:45:38.641Z,1013.91
2019-06-26T06:46:38.641Z,1013.87
2019-06-26T06:47:38.615Z,1013.90
2019-06-26T06:48:38.605Z,1013.90
2019-06-26T06:49:38.593Z,1013.87
2019-06-26T06:50:38.580Z,1013.84
2019-06-26T06:51:38.611Z,1013.92
2019-06-26T06:52:38.554Z,1013.94
2019-06-26T06:53:38.541Z,1013.97
2019-06-26T06:54:38.539Z,1013.90
2019-06-26T06:55:38.524Z,1013.90
2019-06-26T06:56:38.513Z,1013.90
2019-06-26T06:57:38.507Z,1013.87
2019-06-26T06:58:38.509Z,1013.89
2019-06-26T06:59:38.478Z,1013.91
2019-06-26T07:00:38.473Z,1013.91
2019-06-26T07:01:38.457Z,1013.90
2019-06-26T07:02:38.485Z,1013.95
2019-06-26T07:03:38.457Z,1013.94
2019-06-26T07:04:38.430Z,1013.98
2019-06-26T07:05:38.411Z,1013.96
2019-06-26T07:06:38.420Z,1013.96
2019-06-26T07:07:38.396Z,1014.00
2019-06-26T07:08:38.389Z,1013.98
2019-06-26T07:09:38.377Z,1013.97
2019-06-26T07:10:38.370Z,1014.00
2019-06-26T07:11:38.412Z,1013.95
2019-06-26T07:12:38.354Z,1013.92
2019-06-26T07:13:38.323Z,1013.89
2019-06-26T07:14:38.315Z,1013.91
2019-06-26T07:15:38.322Z,1013.89
2019-06-26T07:16:38.297Z,1013.91
2019-06-26T07:17:38.298Z,1013.92
2019-06-26T07:18:38.279Z,1013.92
2019-06-26T07:19:38.259Z,1013.99
2019-06-26T07:20:38.280Z,1014.00
2019-06-26T07:21:38.239Z,1014.02
2019-06-26T07:22:38.282Z,1014.02
2019-06-26T07:23:38.313Z,1013.96
2019-06-26T07:24:38.208Z,1014.02
2019-06-26T07:25:38.199Z,1013.95
2019-06-26T07:26:38.203Z,1013.99
2019-06-26T07:27:38.174Z,1013.98
2019-06-26T07:28:38.166Z,1014.01
2019-06-26T07:29:38.152Z,1013.92
2019-06-26T07:30:38.148Z,1014.00
2019-06-26T07:31:38.627Z,1013.98
2019-06-26T07:32:38.128Z,1013.99
2019-06-26T07:33:38.114Z,1013.98
2019-06-26T07:34:38.113Z,1014.01
2019-06-26T07:35:38.089Z,1014.00
2019-06-26T07:36:38.081Z,1013.99
2019-06-26T07:37:38.077Z,1014.00
2019-06-26T07:38:38.070Z,1014.00
2019-06-26T07:39:38.059Z,1014.02
2019-06-26T07:40:38.029Z,1013.97
2019-06-26T07:41:38.037Z,1013.93
2019-06-26T07:42:38.021Z,1013.96
2019-06-26T07:43:38.018Z,1013.92
2019-06-26T07:44:37.988Z,1013.93
2019-06-26T07:45:37.982Z,1013.91
2019-06-26T07:46:37.971Z,1013.92
2019-06-26T07:47:43.568Z,1013.94
2019-06-26T07:48:38.952Z,1013.99
2019-06-26T07:49:37.931Z,1013.96
2019-06-26T07:50:37.923Z,1013.94
2019-06-26T07:51:37.915Z,1014.01
2019-06-26T07:52:37.899Z,1013.96
2019-06-26T07:53:37.903Z,1013.99
2019-06-26T07:54:37.884Z,1014.02
2019-06-26T07:55:40.484Z,1013.94
2019-06-26T07:56:37.893Z,1014.00
2019-06-26T07:57:37.853Z,1013.92
2019-06-26T07:58:37.837Z,1013.99
2019-06-26T07:59:37.828Z,1014.03
2019-06-26T08:00:37.828Z,1013.98
2019-06-26T08:01:37.807Z,1013.94
2019-06-26T08:02:37.803Z,1014.04
2019-06-26T08:03:37.802Z,1014.00
2019-06-26T08:04:37.776Z,1014.05
2019-06-26T08:05:37.776Z,1013.96
2019-06-26T08:06:37.758Z,1014.05
2019-06-26T08:07:37.762Z,1014.06
2019-06-26T08:08:37.740Z,1014.07
2019-06-26T08:09:37.723Z,1014.01
2019-06-26T08:10:37.741Z,1014.05
2019-06-26T08:11:37.706Z,1014.02
2019-06-26T08:12:37.693Z,1014.04
2019-06-26T08:13:37.685Z,1014.10
2019-06-26T08:14:37.667Z,1014.04
2019-06-26T08:15:37.657Z,1014.04
2019-06-26T08:16:37.652Z,1014.00
2019-06-26T08:17:37.634Z,1014.06
2019-06-26T08:18:37.636Z,1014.04
2019-06-26T08:19:37.612Z,1014.04
2019-06-26T08:20:51.928Z,1014.07
2019-06-26T08:21:38.598Z,1014.03
2019-06-26T08:22:37.582Z,1014.09
2019-06-26T08:23:37.604Z,1014.08
2019-06-26T08:24:37.610Z,1014.05
2019-06-26T08:25:37.545Z,1014.07
2019-06-26T08:26:37.536Z,1014.06
2019-06-26T08:27:37.526Z,1014.13
2019-06-26T08:28:37.515Z,1014.13
2019-06-26T08:29:37.508Z,1014.11
2019-06-26T08:30:37.498Z,1014.03
2019-06-26T08:31:37.487Z,1014.10
2019-06-26T08:32:37.471Z,1014.08
2019-06-26T08:33:37.464Z,1014.11
2019-06-26T08:34:37.492Z,1014.13
2019-06-26T08:35:37.442Z,1014.07
2019-06-26T08:36:37.428Z,1014.08
2019-06-26T08:37:37.418Z,1014.06
2019-06-26T08:38:37.432Z,1014.02
2019-06-26T08:39:37.408Z,1014.06
2019-06-26T08:40:37.394Z,1014.13
2019-06-26T08:41:37.393Z,1014.06
2019-06-26T08:42:37.366Z,1014.09
2019-06-26T08:43:37.360Z,1014.08
2019-06-26T08:44:37.349Z,1014.10
2019-06-26T08:45:37.335Z,1014.10
2019-06-26T08:46:37.335Z,1014.11
2019-06-26T08:47:37.310Z,1014.09
2019-06-26T08:48:40.244Z,1014.01
2019-06-26T08:49:37.301Z,1014.08
2019-06-26T08:50:37.299Z,1014.04
2019-06-26T08:51:37.272Z,1014.06
2019-06-26T08:52:37.257Z,1014.10
2019-06-26T08:53:37.247Z,1014.06
2019-06-26T08:54:37.241Z,1014.10
2019-06-26T08:55:37.266Z,1014.12
2019-06-26T08:56:37.226Z,1014.08
2019-06-26T08:57:37.230Z,1014.17
2019-06-26T08:58:37.197Z,1014.16
2019-06-26T08:59:37.195Z,1014.12
2019-06-26T09:00:37.181Z,1014.06
2019-06-26T09:01:37.487Z,1014.06
2019-06-26T09:02:37.157Z,1014.08
2019-06-26T09:03:37.147Z,1014.08
2019-06-26T09:04:37.143Z,1014.11
2019-06-26T09:05:47.637Z,1014.03
2019-06-26T09:06:38.121Z,1014.11
2019-06-26T09:07:37.104Z,1014.04
2019-06-26T09:08:37.102Z,1014.06
2019-06-26T09:09:37.085Z,1014.08
2019-06-26T09:10:37.074Z,1014.11
2019-06-26T09:11:37.065Z,1014.08
2019-06-26T09:12:37.072Z,1014.07
2019-06-26T09:13:37.038Z,1014.09
2019-06-26T09:14:37.032Z,1014.08
2019-06-26T09:15:37.024Z,1014.13
2019-06-26T09:16:37.029Z,1014.12
2019-06-26T09:17:37.037Z,1014.19
2019-06-26T09:18:36.991Z,1014.12
2019-06-26T09:19:36.981Z,1014.11
2019-06-26T09:20:36.970Z,1014.13
2019-06-26T09:21:36.969Z,1014.12
2019-06-26T09:22:36.964Z,1014.13
2019-06-26T09:23:36.943Z,1014.10
2019-06-26T09:24:36.922Z,1014.10
2019-06-26T09:25:36.913Z,1014.05
2019-06-26T09:26:36.915Z,1014.05
2019-06-26T09:27:36.895Z,1014.02
2019-06-26T09:28:36.901Z,1014.03
2019-06-26T09:29:36.886Z,1014.02
2019-06-26T09:30:36.864Z,1014.04
2019-06-26T09:31:36.866Z,1013.98
2019-06-26T09:32:36.843Z,1013.97
2019-06-26T09:33:36.855Z,1014.09
2019-06-26T09:34:36.822Z,1014.07
2019-06-26T09:35:36.810Z,1014.04
2019-06-26T09:36:36.807Z,1014.04
2019-06-26T09:37:36.790Z,1014.04
2019-06-26T09:38:36.780Z,1014.02
2019-06-26T09:39:36.771Z,1013.98
2019-06-26T09:40:36.765Z,1013.97
2019-06-26T09:41:36.747Z,1013.94
2019-06-26T09:42:36.738Z,1014.05
2019-06-26T09:43:36.724Z,1013.97
2019-06-26T09:44:36.763Z,1013.94
2019-06-26T09:45:36.719Z,1013.96
2019-06-26T09:46:36.707Z,1013.92
2019-06-26T09:47:36.684Z,1013.98
2019-06-26T09:48:51.379Z,1013.95
2019-06-26T09:49:37.710Z,1013.97
2019-06-26T09:50:36.657Z,1013.89
2019-06-26T09:51:36.701Z,1013.89
2019-06-26T09:52:36.631Z,1013.92
2019-06-26T09:53:46.729Z,1013.88
2019-06-26T09:54:37.608Z,1013.87
2019-06-26T09:55:36.642Z,1013.89
2019-06-26T09:56:36.601Z,1013.97
2019-06-26T09:57:36.581Z,1013.95
2019-06-26T09:58:36.581Z,1013.88
2019-06-26T09:59:36.556Z,1013.91
2019-06-26T10:00:36.584Z,1013.93
2019-06-26T10:01:36.537Z,1013.91
2019-06-26T10:02:36.528Z,1013.92
2019-06-26T10:03:36.518Z,1013.87
2019-06-26T10:04:36.509Z,1013.84
2019-06-26T10:05:36.491Z,1013.92
2019-06-26T10:06:36.516Z,1013.87
2019-06-26T10:07:36.475Z,1013.98
2019-06-26T10:08:36.484Z,1013.93
2019-06-26T10:09:36.455Z,1013.88
2019-06-26T10:10:36.439Z,1013.89
2019-06-26T10:11:36.429Z,1013.88
2019-06-26T10:12:36.421Z,1013.88
2019-06-26T10:13:36.407Z,1013.89
2019-06-26T10:14:47.466Z,1013.84
2019-06-26T10:15:37.396Z,1013.85
2019-06-26T10:16:36.413Z,1013.85
2019-06-26T10:17:36.371Z,1013.85
2019-06-26T10:18:36.376Z,1013.88
2019-06-26T10:19:36.361Z,1013.81
2019-06-26T10:20:36.337Z,1013.80
2019-06-26T10:21:36.373Z,1013.79
2019-06-26T10:22:36.319Z,1013.75
2019-06-26T10:23:36.311Z,1013.76
2019-06-26T10:24:36.305Z,1013.67
2019-06-26T10:25:36.288Z,1013.70
2019-06-26T10:26:36.281Z,1013.69
2019-06-26T10:27:36.304Z,1013.61
2019-06-26T10:28:36.259Z,1013.61
2019-06-26T10:29:36.247Z,1013.65
2019-06-26T10:30:36.238Z,1013.63
2019-06-26T10:31:36.244Z,1013.64
2019-06-26T10:32:36.220Z,1013.66
2019-06-26T10:33:36.221Z,1013.71
2019-06-26T10:34:36.191Z,1013.78
2019-06-26T10:35:36.184Z,1013.77
2019-06-26T10:36:36.182Z,1013.76
2019-06-26T10:37:36.163Z,1013.73
2019-06-26T10:38:36.201Z,1013.62
2019-06-26T10:39:36.152Z,1013.71
2019-06-26T10:40:36.134Z,1013.67
2019-06-26T10:41:36.128Z,1013.66
2019-06-26T10:42:36.119Z,1013.66
2019-06-26T10:43:36.111Z,1013.63
2019-06-26T10:44:36.126Z,1013.75
2019-06-26T10:45:36.396Z,1013.76
2019-06-26T10:46:36.082Z,1013.70
2019-06-26T10:47:39.497Z,1013.73
2019-06-26T10:48:36.064Z,1013.71
2019-06-26T10:49:36.066Z,1013.68
2019-06-26T10:50:47.839Z,1013.63
2019-06-26T10:51:37.032Z,1013.66
2019-06-26T10:52:36.032Z,1013.62
2019-06-26T10:53:36.020Z,1013.65
2019-06-26T10:54:36.030Z,1013.57
2019-06-26T10:55:36.005Z,1013.64
2019-06-26T10:56:35.997Z,1013.63
2019-06-26T10:57:35.979Z,1013.55
2019-06-26T10:58:35.978Z,1013.58
2019-06-26T10:59:35.985Z,1013.58
2019-06-26T11:00:35.969Z,1013.60
2019-06-26T11:01:35.946Z,1013.54
2019-06-26T11:02:35.950Z,1013.58
2019-06-26T11:03:35.950Z,1013.61
2019-06-26T11:04:35.958Z,1013.56
2019-06-26T11:05:35.938Z,1013.48
2019-06-26T11:06:37.270Z,1013.59
2019-06-26T11:07:36.694Z,1013.39
2019-06-26T11:08:35.888Z,1013.51
2019-06-26T11:09:35.879Z,1013.49
2019-06-26T11:10:35.863Z,1013.53
2019-06-26T11:11:35.867Z,1013.51
2019-06-26T11:12:35.860Z,1013.56
2019-06-26T11:13:35.902Z,1013.55
2019-06-26T11:14:35.837Z,1013.55
2019-06-26T11:15:35.825Z,1013.55
2019-06-26T11:16:35.829Z,1013.54
2019-06-26T11:17:35.818Z,1013.27
2019-06-26T11:18:35.800Z,1013.57
2019-06-26T11:19:43.815Z,1013.47
2019-06-26T11:20:36.775Z,1013.41
2019-06-26T11:21:35.777Z,1013.30
2019-06-26T11:22:35.753Z,1013.31
2019-06-26T11:23:35.745Z,1013.32
2019-06-26T11:24:35.752Z,1013.50
2019-06-26T11:25:35.735Z,1013.22
2019-06-26T11:26:35.730Z,1013.22
2019-06-26T11:27:35.752Z,1013.52
2019-06-26T11:28:35.713Z,1013.44
2019-06-26T11:29:35.696Z,1013.42
2019-06-26T11:30:35.682Z,1013.50
2019-06-26T11:31:35.674Z,1013.52
2019-06-26T11:32:35.685Z,1013.48
2019-06-26T11:33:35.651Z,1013.52
2019-06-26T11:34:35.648Z,1013.58
2019-06-26T11:35:35.650Z,1013.61
2019-06-26T11:36:35.644Z,1013.54
2019-06-26T11:37:35.719Z,1013.47
2019-06-26T11:38:35.612Z,1013.50
2019-06-26T11:39:35.599Z,1013.39
2019-06-26T11:40:35.595Z,1013.33
2019-06-26T11:41:35.583Z,1013.37
2019-06-26T11:42:35.574Z,1013.40
2019-06-26T11:43:35.578Z,1013.33
2019-06-26T11:44:35.563Z,1013.34
2019-06-26T11:45:35.552Z,1013.33
2019-06-26T11:46:37.064Z,1013.26
2019-06-26T11:47:35.525Z,1013.25
2019-06-26T11:48:35.539Z,1013.24
2019-06-26T11:49:35.513Z,1013.28
2019-06-26T11:50:35.522Z,1013.16
2019-06-26T11:51:35.497Z,1013.25
2019-06-26T11:52:35.479Z,1013.34
2019-06-26T11:53:35.488Z,1013.37
2019-06-26T11:54:35.461Z,1013.34
2019-06-26T11:55:35.460Z,1013.26
2019-06-26T11:56:35.457Z,1013.29
2019-06-26T11:57:35.446Z,1013.32
2019-06-26T11:58:35.457Z,1013.22
2019-06-26T11:59:35.417Z,1013.22
2019-06-26T12:00:35.417Z,1013.28
2019-06-26T12:01:35.401Z,1013.29
2019-06-26T12:02:35.396Z,1013.28
2019-06-26T12:03:35.391Z,1013.23
2019-06-26T12:04:35.405Z,1013.33
2019-06-26T12:05:35.384Z,1013.24